createdAt,value
2023-03-25T00:01:19.224Z,4.70
2023-03-25T00:02:41.256Z,4.03
2023-03-25T00:05:28.496Z,4.32
2023-03-25T00:06:50.922Z,3.78
2023-03-25T00:08:15.829Z,4.25
2023-03-25T00:11:04.266Z,3.92
2023-03-25T00:12:40.314Z,4.57
2023-03-25T00:14:04.718Z,4.15
2023-03-25T00:15:27.170Z,3.55
2023-03-25T00:16:53.225Z,4.30
2023-03-25T00:18:17.664Z,3.78
2023-03-25T00:19:46.780Z,3.97
2023-03-25T00:21:11.897Z,4.20
2023-03-25T00:22:40.823Z,4.22
2023-03-25T00:24:04.498Z,3.78
2023-03-25T00:25:25.552Z,3.97
2023-03-25T00:26:49.080Z,4.50
2023-03-25T00:28:11.397Z,4.03
2023-03-25T00:29:32.600Z,3.50
2023-03-25T00:30:55.234Z,3.53
2023-03-25T00:32:21.224Z,4.63
2023-03-25T00:33:43.787Z,3.70
2023-03-25T00:35:08.738Z,3.80
2023-03-25T00:36:32.573Z,4.68
2023-03-25T00:37:57.968Z,4.15
2023-03-25T00:39:21.436Z,4.43
2023-03-25T00:40:43.246Z,3.97
2023-03-25T00:42:26.367Z,4.15
2023-03-25T00:43:51.682Z,4.25
2023-03-25T00:45:19.017Z,3.55
2023-03-25T00:46:46.701Z,3.55
2023-03-25T00:48:11.530Z,4.53
2023-03-25T00:49:44.932Z,4.05
2023-03-25T00:51:52.502Z,3.95
2023-03-25T00:53:17.224Z,3.83
2023-03-25T00:54:42.816Z,4.75
2023-03-25T00:56:14.698Z,3.83
2023-03-25T00:57:39.262Z,4.07
2023-03-25T00:59:00.507Z,4.22
2023-03-25T01:00:22.952Z,3.63
2023-03-25T01:01:46.334Z,4.15
2023-03-25T01:03:09.882Z,4.10
2023-03-25T01:04:32.176Z,3.60
2023-03-25T01:05:55.335Z,4.45
2023-03-25T01:07:17.892Z,4.32
2023-03-25T01:08:41.827Z,4.80
2023-03-25T01:10:31.595Z,4.10
2023-03-25T01:11:54.962Z,4.05
2023-03-25T01:13:23.739Z,4.70
2023-03-25T01:14:46.486Z,5.03
2023-03-25T01:16:09.984Z,4.82
2023-03-25T01:17:34.783Z,4.43
2023-03-25T01:19:01.965Z,5.00
2023-03-25T01:20:23.301Z,4.50
2023-03-25T01:21:46.065Z,4.65
2023-03-25T01:23:16.255Z,4.32
2023-03-25T01:24:48.366Z,4.35
2023-03-25T01:26:09.579Z,4.35
2023-03-25T01:27:36.498Z,4.10
2023-03-25T01:29:05.212Z,3.63
2023-03-25T01:30:27.728Z,3.92
2023-03-25T01:31:50.931Z,4.22
2023-03-25T01:33:13.306Z,4.25
2023-03-25T01:34:41.542Z,4.18
2023-03-25T01:36:04.482Z,3.80
2023-03-25T01:37:27.487Z,4.25
2023-03-25T01:38:50.735Z,3.70
2023-03-25T01:40:20.122Z,4.43
2023-03-25T01:41:48.979Z,3.75
2023-03-25T01:43:15.469Z,3.97
2023-03-25T01:45:17.909Z,3.50
2023-03-25T01:46:45.147Z,4.20
2023-03-25T01:48:11.610Z,4.40
2023-03-25T01:49:39.442Z,4.00
2023-03-25T01:51:06.517Z,4.13
2023-03-25T01:52:29.951Z,4.03
2023-03-25T01:53:54.584Z,4.15
2023-03-25T01:55:21.588Z,4.40
2023-03-25T01:56:49.189Z,4.10
2023-03-25T01:58:15.416Z,3.63
2023-03-25T01:59:40.266Z,4.25
2023-03-25T02:01:03.482Z,4.00
2023-03-25T02:02:36.857Z,3.90
2023-03-25T02:04:03.568Z,4.22
2023-03-25T02:05:31.086Z,3.78
2023-03-25T02:06:55.015Z,4.20
2023-03-25T02:08:17.573Z,4.40
2023-03-25T02:09:39.905Z,4.30
2023-03-25T02:12:25.435Z,4.15
2023-03-25T02:13:47.838Z,3.75
2023-03-25T02:15:10.921Z,4.22
2023-03-25T02:16:42.672Z,4.30
2023-03-25T02:18:22.458Z,4.63
2023-03-25T02:20:33.401Z,4.32
2023-03-25T02:22:28.500Z,4.20
2023-03-25T02:24:25.928Z,3.80
2023-03-25T02:26:19.143Z,4.68
2023-03-25T02:28:03.397Z,4.68
2023-03-25T02:29:38.029Z,4.97
2023-03-25T02:31:22.764Z,5.63
2023-03-25T02:33:17.745Z,4.45
2023-03-25T02:37:18.441Z,4.95
2023-03-25T02:38:48.002Z,4.22
2023-03-25T02:40:16.259Z,5.10
2023-03-25T02:41:58.536Z,4.90
2023-03-25T02:43:24.187Z,5.30
2023-03-25T02:45:25.306Z,5.78
2023-03-25T02:46:57.449Z,5.10
2023-03-25T02:48:21.809Z,5.90
2023-03-25T02:49:54.190Z,5.25
2023-03-25T02:51:24.537Z,5.65
2023-03-25T02:52:50.083Z,5.25
2023-03-25T02:54:17.225Z,5.85
2023-03-25T02:55:43.421Z,5.40
2023-03-25T02:57:08.393Z,5.70
2023-03-25T02:58:31.079Z,5.30
2023-03-25T02:59:56.496Z,6.05
2023-03-25T03:01:25.509Z,5.85
2023-03-25T03:02:59.959Z,5.63
2023-03-25T03:04:23.670Z,5.93
2023-03-25T03:05:49.766Z,5.38
2023-03-25T03:07:24.602Z,5.45
2023-03-25T03:09:01.558Z,6.28
2023-03-25T03:10:31.787Z,6.00
2023-03-25T03:12:06.043Z,6.28
2023-03-25T03:13:56.490Z,5.93
2023-03-25T03:15:29.930Z,6.38
2023-03-25T03:17:03.748Z,5.72
2023-03-25T03:20:00.842Z,5.15
2023-03-25T03:21:30.248Z,5.57
2023-03-25T03:23:02.251Z,5.75
2023-03-25T03:24:32.214Z,5.30
2023-03-25T03:26:00.385Z,5.50
2023-03-25T03:27:33.965Z,5.25
2023-03-25T03:29:06.574Z,5.72
2023-03-25T03:30:32.896Z,5.78
2023-03-25T03:32:06.998Z,5.50
2023-03-25T03:33:34.560Z,6.07
2023-03-25T03:35:02.053Z,5.45
2023-03-25T03:36:30.244Z,5.70
2023-03-25T03:37:58.934Z,6.00
2023-03-25T03:39:25.089Z,5.40
2023-03-25T03:40:51.743Z,6.20
2023-03-25T03:42:21.593Z,5.57
2023-03-25T03:43:50.332Z,5.75
2023-03-25T03:45:18.984Z,5.55
2023-03-25T03:46:47.203Z,5.68
2023-03-25T03:48:14.111Z,6.95
2023-03-25T03:49:38.885Z,5.60
2023-03-25T03:51:08.029Z,6.05
2023-03-25T03:52:34.827Z,5.60
2023-03-25T03:54:00.736Z,5.45
2023-03-25T03:55:30.013Z,5.35
2023-03-25T03:56:57.362Z,5.43
2023-03-25T03:58:26.193Z,5.90
2023-03-25T03:59:54.982Z,7.10
2023-03-25T04:01:28.179Z,5.45
2023-03-25T04:02:51.659Z,5.47
2023-03-25T04:04:18.255Z,5.15
2023-03-25T04:05:41.065Z,5.72
2023-03-25T04:07:07.184Z,5.13
2023-03-25T04:08:35.814Z,5.10
2023-03-25T04:10:04.339Z,5.13
2023-03-25T04:11:31.794Z,4.88
2023-03-25T04:12:56.972Z,4.95
2023-03-25T04:14:20.047Z,4.95
2023-03-25T04:15:42.788Z,5.35
2023-03-25T04:17:06.081Z,4.82
2023-03-25T04:18:28.785Z,5.70
2023-03-25T04:19:53.636Z,5.35
2023-03-25T04:21:17.815Z,5.95
2023-03-25T04:22:38.931Z,5.25
2023-03-25T04:24:01.832Z,5.78
2023-03-25T04:25:25.372Z,5.20
2023-03-25T04:26:50.007Z,5.45
2023-03-25T04:28:13.858Z,4.97
2023-03-25T04:29:37.274Z,5.15
2023-03-25T04:31:00.647Z,5.65
2023-03-25T04:32:22.812Z,5.25
2023-03-25T04:33:46.910Z,5.45
2023-03-25T04:35:09.704Z,5.57
2023-03-25T04:36:33.838Z,5.43
2023-03-25T04:37:57.628Z,5.43
2023-03-25T04:39:22.776Z,5.47
2023-03-25T04:40:46.901Z,5.43
2023-03-25T04:42:09.090Z,5.70
2023-03-25T04:43:30.351Z,6.00
2023-03-25T04:44:54.446Z,4.93
2023-03-25T04:46:18.346Z,4.88
2023-03-25T04:47:45.157Z,5.65
2023-03-25T04:49:14.212Z,6.88
2023-03-25T04:50:35.275Z,5.30
2023-03-25T04:51:58.216Z,5.90
2023-03-25T04:53:19.837Z,5.25
2023-03-25T04:54:42.278Z,5.72
2023-03-25T04:56:05.219Z,5.43
2023-03-25T04:57:27.444Z,4.97
2023-03-25T04:58:48.772Z,5.20
2023-03-25T05:00:15.168Z,5.28
2023-03-25T05:01:42.309Z,5.70
2023-03-25T05:03:05.003Z,5.20
2023-03-25T05:04:27.106Z,5.22
2023-03-25T05:05:48.580Z,5.28
2023-03-25T05:07:11.065Z,5.03
2023-03-25T05:08:32.016Z,5.10
2023-03-25T05:09:54.365Z,5.25
2023-03-25T05:12:37.038Z,5.10
2023-03-25T05:15:21.382Z,5.30
2023-03-25T05:16:44.148Z,5.20
2023-03-25T05:18:06.933Z,5.03
2023-03-25T05:19:28.902Z,5.43
2023-03-25T05:22:13.325Z,5.63
2023-03-25T05:23:35.381Z,5.95
2023-03-25T05:26:18.394Z,4.32
2023-03-25T05:27:39.987Z,4.68
2023-03-25T05:29:03.265Z,5.65
2023-03-25T05:30:32.707Z,4.80
2023-03-25T05:31:55.667Z,4.85
2023-03-25T05:33:19.090Z,5.20
2023-03-25T05:34:41.053Z,4.95
2023-03-25T05:36:02.420Z,4.88
2023-03-25T05:37:24.358Z,4.70
2023-03-25T05:38:46.429Z,5.60
2023-03-25T05:40:14.975Z,4.95
2023-03-25T05:41:40.052Z,5.13
2023-03-25T05:43:05.698Z,5.25
2023-03-25T05:44:27.735Z,5.20
2023-03-25T05:47:13.453Z,5.07
2023-03-25T05:48:35.858Z,5.18
2023-03-25T05:49:58.736Z,5.00
2023-03-25T05:51:22.119Z,5.10
2023-03-25T05:52:45.710Z,5.47
2023-03-25T05:54:12.031Z,4.75
2023-03-25T05:55:34.518Z,4.35
2023-03-25T05:57:01.301Z,4.90
2023-03-25T05:58:22.462Z,6.43
2023-03-25T05:59:44.686Z,5.47
2023-03-25T06:01:14.593Z,5.30
2023-03-25T06:02:49.031Z,6.15
2023-03-25T06:04:13.092Z,5.00
2023-03-25T06:05:41.518Z,5.30
2023-03-25T06:07:03.950Z,4.88
2023-03-25T06:08:27.160Z,5.22
2023-03-25T06:09:54.471Z,5.30
2023-03-25T06:11:15.999Z,5.68
2023-03-25T06:12:39.278Z,5.40
2023-03-25T06:14:02.940Z,5.35
2023-03-25T06:15:29.557Z,5.97
2023-03-25T06:16:56.786Z,5.72
2023-03-25T06:18:22.700Z,5.53
2023-03-25T06:19:44.255Z,6.00
2023-03-25T06:21:07.169Z,5.05
2023-03-25T06:22:28.321Z,5.63
2023-03-25T06:23:51.098Z,5.45
2023-03-25T06:25:17.782Z,5.45
2023-03-25T06:26:39.964Z,5.63
2023-03-25T06:28:03.815Z,5.03
2023-03-25T06:29:26.514Z,4.78
2023-03-25T06:30:49.492Z,4.60
2023-03-25T06:32:14.944Z,5.25
2023-03-25T06:33:42.910Z,4.68
2023-03-25T06:35:07.328Z,4.97
2023-03-25T06:36:29.748Z,4.57
2023-03-25T06:37:51.969Z,4.72
2023-03-25T06:40:50.903Z,4.55
2023-03-25T06:42:13.217Z,5.07
2023-03-25T06:43:56.726Z,4.70
2023-03-25T06:45:54.941Z,4.57
2023-03-25T06:47:32.675Z,5.20
2023-03-25T06:48:53.860Z,5.80
2023-03-25T06:50:16.262Z,4.93
2023-03-25T06:51:38.155Z,4.88
2023-03-25T06:53:01.026Z,5.07
2023-03-25T06:54:23.907Z,5.03
2023-03-25T06:55:45.134Z,4.50
2023-03-25T06:57:08.322Z,6.60
2023-03-25T06:58:35.315Z,5.20
2023-03-25T06:59:57.871Z,5.00
2023-03-25T07:01:19.914Z,4.80
2023-03-25T07:02:43.776Z,5.18
2023-03-25T07:04:06.168Z,4.93
2023-03-25T07:05:27.395Z,4.80
2023-03-25T07:06:49.716Z,4.97
2023-03-25T07:08:11.782Z,5.30
2023-03-25T07:09:33.911Z,5.63
2023-03-25T07:11:02.379Z,5.72
2023-03-25T07:12:25.026Z,5.20
2023-03-25T07:13:46.195Z,6.68
2023-03-25T07:15:09.843Z,5.60
2023-03-25T07:16:35.568Z,6.18
2023-03-25T07:18:02.124Z,6.07
2023-03-25T07:19:24.183Z,6.20
2023-03-25T07:23:29.859Z,6.38
2023-03-25T07:24:52.609Z,5.75
2023-03-25T07:26:14.743Z,6.05
2023-03-25T07:27:37.005Z,7.78
2023-03-25T07:29:04.766Z,6.22
2023-03-25T07:30:27.025Z,6.07
2023-03-25T07:31:49.338Z,6.35
2023-03-25T07:33:12.036Z,6.53
2023-03-25T07:34:34.047Z,5.75
2023-03-25T07:35:55.421Z,5.50
2023-03-25T07:37:17.728Z,6.70
2023-03-25T07:38:40.326Z,6.22
2023-03-25T07:40:02.661Z,6.40
2023-03-25T07:41:23.838Z,6.40
2023-03-25T07:43:06.835Z,5.60
2023-03-25T07:44:36.285Z,5.03
2023-03-25T07:45:58.848Z,5.38
2023-03-25T07:47:24.966Z,5.22
2023-03-25T07:48:48.761Z,4.78
2023-03-25T07:50:10.529Z,5.25
2023-03-25T07:51:33.361Z,5.00
2023-03-25T07:52:56.050Z,4.88
2023-03-25T07:54:18.286Z,3.92
2023-03-25T07:55:41.336Z,3.90
2023-03-25T07:57:02.777Z,4.25
2023-03-25T07:59:47.727Z,3.70
2023-03-25T08:01:09.902Z,3.58
2023-03-25T08:02:30.975Z,3.38
2023-03-25T08:03:55.020Z,3.55
2023-03-25T08:05:21.383Z,2.60
2023-03-25T08:06:42.827Z,3.80
2023-03-25T08:08:06.941Z,2.67
2023-03-25T08:09:29.933Z,2.85
2023-03-25T08:10:51.805Z,2.65
2023-03-25T08:12:13.881Z,2.47
2023-03-25T08:13:36.119Z,2.78
2023-03-25T08:14:58.246Z,2.40
2023-03-25T08:16:19.331Z,3.15
2023-03-25T08:17:42.026Z,2.47
2023-03-25T08:19:04.882Z,2.67
2023-03-25T08:20:29.977Z,2.47
2023-03-25T08:21:52.524Z,2.40
2023-03-25T08:23:19.955Z,2.28
2023-03-25T08:24:42.122Z,2.40
2023-03-25T08:26:05.637Z,2.08
2023-03-25T08:27:27.636Z,2.78
2023-03-25T08:28:49.596Z,2.53
2023-03-25T08:30:13.350Z,2.97
2023-03-25T08:31:38.945Z,2.22
2023-03-25T08:33:07.452Z,2.15
2023-03-25T08:34:39.785Z,2.55
2023-03-25T08:36:03.401Z,2.50
2023-03-25T08:37:26.100Z,2.35
2023-03-25T08:38:48.235Z,2.20
2023-03-25T08:40:10.979Z,2.45
2023-03-25T08:41:32.166Z,2.58
2023-03-25T08:42:54.271Z,2.77
2023-03-25T08:44:16.609Z,2.13
2023-03-25T08:45:38.569Z,2.08
2023-03-25T08:47:01.623Z,2.10
2023-03-25T08:48:24.934Z,2.20
2023-03-25T08:49:49.553Z,2.10
2023-03-25T08:51:11.784Z,1.83
2023-03-25T08:52:36.918Z,1.73
2023-03-25T08:53:59.161Z,1.95
2023-03-25T08:55:26.180Z,1.77
2023-03-25T08:56:48.625Z,2.30
2023-03-25T08:58:10.880Z,1.60
2023-03-25T08:59:31.992Z,3.53
2023-03-25T09:00:56.334Z,1.50
2023-03-25T09:02:18.914Z,1.00
2023-03-25T09:03:41.155Z,1.20
2023-03-25T09:05:04.626Z,1.52
2023-03-25T09:06:27.130Z,1.20
2023-03-25T09:07:49.381Z,1.67
2023-03-25T09:09:12.430Z,1.63
2023-03-25T09:10:36.684Z,1.40
2023-03-25T09:12:00.867Z,1.23
2023-03-25T09:13:22.885Z,1.40
2023-03-25T09:14:50.069Z,1.70
2023-03-25T09:16:12.167Z,1.70
2023-03-25T09:17:34.264Z,1.40
2023-03-25T09:18:56.684Z,1.85
2023-03-25T09:20:23.363Z,1.50
2023-03-25T09:21:45.632Z,1.40
2023-03-25T09:23:09.792Z,1.67
2023-03-25T09:24:34.274Z,1.55
2023-03-25T09:26:01.164Z,1.60
2023-03-25T09:27:23.342Z,1.40
2023-03-25T09:28:46.145Z,1.63
2023-03-25T09:30:09.912Z,1.80
2023-03-25T09:31:33.594Z,2.13
2023-03-25T09:32:55.965Z,1.65
2023-03-25T09:34:18.656Z,1.73
2023-03-25T09:35:43.158Z,1.90
2023-03-25T09:37:05.833Z,1.60
2023-03-25T09:38:27.985Z,1.70
2023-03-25T09:39:50.650Z,2.47
2023-03-25T09:41:42.375Z,2.20
2023-03-25T09:43:15.844Z,1.98
2023-03-25T09:44:53.585Z,2.17
2023-03-25T09:46:16.301Z,1.73
2023-03-25T09:47:44.011Z,1.23
2023-03-25T09:49:13.442Z,1.60
2023-03-25T09:50:37.412Z,1.58
2023-03-25T09:52:04.327Z,1.67
2023-03-25T09:53:32.805Z,1.33
2023-03-25T09:55:00.557Z,1.52
2023-03-25T09:56:25.970Z,1.10
2023-03-25T09:57:51.815Z,1.05
2023-03-25T09:59:18.944Z,1.15
2023-03-25T10:00:48.426Z,1.60
2023-03-25T10:02:33.711Z,1.30
2023-03-25T10:04:34.493Z,1.10
2023-03-25T10:06:12.585Z,1.13
2023-03-25T10:07:54.798Z,1.08
2023-03-25T10:09:42.788Z,1.35
2023-03-25T10:11:09.604Z,1.63
2023-03-25T10:12:43.787Z,1.00
2023-03-25T10:14:15.551Z,1.50
2023-03-25T10:15:52.123Z,0.98
2023-03-25T10:17:27.491Z,1.38
2023-03-25T10:18:59.844Z,1.33
2023-03-25T10:20:35.480Z,1.30
2023-03-25T10:22:04.462Z,1.00
2023-03-25T10:23:34.773Z,1.20
2023-03-25T10:25:02.226Z,1.10
2023-03-25T10:26:30.998Z,1.00
2023-03-25T10:27:54.510Z,1.30
2023-03-25T10:29:23.444Z,1.30
2023-03-25T10:30:53.319Z,1.23
2023-03-25T10:32:19.950Z,1.48
2023-03-25T10:33:51.615Z,1.58
2023-03-25T10:35:23.285Z,1.20
2023-03-25T10:36:55.312Z,1.30
2023-03-25T10:38:21.047Z,1.30
2023-03-25T10:39:47.484Z,1.25
2023-03-25T10:41:21.321Z,1.25
2023-03-25T10:43:00.418Z,1.27
2023-03-25T10:44:25.519Z,1.50
2023-03-25T10:45:50.384Z,1.52
2023-03-25T10:47:17.731Z,1.58
2023-03-25T10:48:40.342Z,1.20
2023-03-25T10:50:04.696Z,1.45
2023-03-25T10:51:30.592Z,1.42
2023-03-25T10:52:57.757Z,1.25
2023-03-25T10:54:20.599Z,1.52
2023-03-25T10:55:48.237Z,1.30
2023-03-25T10:57:13.339Z,1.45
2023-03-25T10:58:41.520Z,1.73
2023-03-25T11:00:14.829Z,1.10
2023-03-25T11:01:40.044Z,1.40
2023-03-25T11:03:05.452Z,1.90
2023-03-25T11:04:34.996Z,1.70
2023-03-25T11:06:00.311Z,1.70
2023-03-25T11:07:27.178Z,2.75
2023-03-25T11:09:13.768Z,2.40
2023-03-25T11:10:35.920Z,3.10
2023-03-25T11:12:01.631Z,2.20
2023-03-25T11:13:25.979Z,2.53
2023-03-25T11:14:56.779Z,2.15
2023-03-25T11:16:19.454Z,2.83
2023-03-25T11:17:42.075Z,1.52
2023-03-25T11:19:05.137Z,1.45
2023-03-25T11:20:31.904Z,1.40
2023-03-25T11:21:57.255Z,1.35
2023-03-25T11:23:27.325Z,1.20
2023-03-25T11:24:54.767Z,1.52
2023-03-25T11:26:22.281Z,1.55
2023-03-25T11:27:51.341Z,1.60
2023-03-25T11:29:16.120Z,1.33
2023-03-25T11:30:39.143Z,1.38
2023-03-25T11:32:08.830Z,1.30
2023-03-25T11:33:29.972Z,1.65
2023-03-25T11:34:54.704Z,1.57
2023-03-25T11:36:27.160Z,1.30
2023-03-25T11:37:57.428Z,1.42
2023-03-25T11:39:28.324Z,1.65
2023-03-25T11:40:54.945Z,2.25
2023-03-25T11:42:32.725Z,1.67
2023-03-25T11:43:57.177Z,1.70
2023-03-25T11:45:25.041Z,1.40
2023-03-25T11:46:50.363Z,1.50
2023-03-25T11:48:17.603Z,1.48
2023-03-25T11:49:42.039Z,1.52
2023-03-25T11:51:06.070Z,1.50
2023-03-25T11:52:29.764Z,1.80
2023-03-25T11:54:00.194Z,2.33
2023-03-25T11:55:26.272Z,1.80
2023-03-25T11:56:51.512Z,1.83
2023-03-25T11:58:18.582Z,1.60
2023-03-25T11:59:46.228Z,1.98
2023-03-25T12:01:21.574Z,1.70
2023-03-25T12:02:43.589Z,1.55
2023-03-25T12:06:27.076Z,1.40
2023-03-25T12:08:15.229Z,1.45
2023-03-25T12:09:38.380Z,1.52
2023-03-25T12:11:07.133Z,1.20
2023-03-25T12:12:40.234Z,1.30
2023-03-25T12:14:26.635Z,1.60
2023-03-25T12:15:56.522Z,1.63
2023-03-25T12:17:29.451Z,1.55
2023-03-25T12:19:04.508Z,1.70
2023-03-25T12:20:34.209Z,1.70
2023-03-25T12:22:08.660Z,1.98
2023-03-25T12:23:44.923Z,1.30
2023-03-25T12:25:27.676Z,1.50
2023-03-25T12:26:57.925Z,1.27
2023-03-25T12:28:35.674Z,1.33
2023-03-25T12:30:06.296Z,1.10
2023-03-25T12:31:40.958Z,1.15
2023-03-25T12:33:14.036Z,1.10
2023-03-25T12:34:47.491Z,1.30
2023-03-25T12:36:23.955Z,1.05
2023-03-25T12:38:02.018Z,1.10
2023-03-25T12:39:43.137Z,1.17
2023-03-25T12:41:31.757Z,2.70
2023-03-25T12:43:04.657Z,1.27
2023-03-25T12:44:43.927Z,1.52
2023-03-25T12:46:20.498Z,1.45
2023-03-25T12:47:50.708Z,1.65
2023-03-25T12:49:30.901Z,1.48
2023-03-25T12:51:01.935Z,1.60
2023-03-25T12:52:32.288Z,1.30
2023-03-25T12:54:06.559Z,1.63
2023-03-25T12:55:45.507Z,1.48
2023-03-25T12:57:16.828Z,1.90
2023-03-25T12:59:00.074Z,1.70
2023-03-25T13:00:34.411Z,1.95
2023-03-25T13:02:20.138Z,1.70
2023-03-25T13:04:10.090Z,2.05
2023-03-25T13:05:48.385Z,1.60
2023-03-25T13:07:14.468Z,2.20
2023-03-25T13:08:43.880Z,1.80
2023-03-25T13:10:15.015Z,1.77
2023-03-25T13:11:53.313Z,1.67
2023-03-25T13:13:20.737Z,1.58
2023-03-25T13:14:49.969Z,1.63
2023-03-25T13:16:15.397Z,1.40
2023-03-25T13:17:58.584Z,1.13
2023-03-25T13:19:44.493Z,1.15
2023-03-25T13:21:14.149Z,1.42
2023-03-25T13:22:41.072Z,1.40
2023-03-25T13:24:08.266Z,1.10
2023-03-25T13:25:36.897Z,1.67
2023-03-25T13:27:01.102Z,1.10
2023-03-25T13:28:29.095Z,1.25
2023-03-25T13:29:55.095Z,1.10
2023-03-25T13:31:24.237Z,1.05
2023-03-25T13:32:50.606Z,1.00
2023-03-25T13:34:28.056Z,1.02
2023-03-25T13:35:59.281Z,1.10
2023-03-25T13:37:29.486Z,1.48
2023-03-25T13:38:55.575Z,0.95
2023-03-25T13:40:36.862Z,0.93
2023-03-25T13:42:06.404Z,1.20
2023-03-25T13:43:40.144Z,1.02
2023-03-25T13:45:06.267Z,1.13
2023-03-25T13:46:35.062Z,1.20
2023-03-25T13:48:08.001Z,1.10
2023-03-25T13:49:37.251Z,1.20
2023-03-25T13:51:06.555Z,1.27
2023-03-25T13:52:35.053Z,1.27
2023-03-25T13:54:02.871Z,1.33
2023-03-25T13:55:35.365Z,1.60
2023-03-25T13:57:26.675Z,1.85
2023-03-25T13:59:07.240Z,1.45
2023-03-25T14:00:49.093Z,1.80
2023-03-25T14:02:49.292Z,1.70
2023-03-25T14:04:33.366Z,1.50
2023-03-25T14:06:19.612Z,1.50
2023-03-25T14:08:08.639Z,1.40
2023-03-25T14:10:18.995Z,1.70
2023-03-25T14:11:58.386Z,1.38
2023-03-25T14:13:26.814Z,2.00
2023-03-25T14:14:57.175Z,1.70
2023-03-25T14:16:25.882Z,1.73
2023-03-25T14:17:50.539Z,1.80
2023-03-25T14:19:16.974Z,1.73
2023-03-25T14:20:41.708Z,1.95
2023-03-25T14:22:11.747Z,1.65
2023-03-25T14:23:38.418Z,2.45
2023-03-25T14:25:02.301Z,1.60
2023-03-25T14:26:24.831Z,1.60
2023-03-25T14:27:50.713Z,1.63
2023-03-25T14:29:26.450Z,1.80
2023-03-25T14:31:11.152Z,4.43
2023-03-25T14:32:36.076Z,2.28
2023-03-25T14:34:15.074Z,1.83
2023-03-25T14:35:58.062Z,1.40
2023-03-25T14:37:29.570Z,1.40
2023-03-25T14:38:54.607Z,1.20
2023-03-25T14:41:01.494Z,1.30
2023-03-25T14:42:30.743Z,1.40
2023-03-25T14:44:14.700Z,1.25
2023-03-25T14:46:01.647Z,1.20
2023-03-25T14:47:36.651Z,1.50
2023-03-25T14:49:21.263Z,1.50
2023-03-25T14:50:44.054Z,1.50
2023-03-25T14:52:07.573Z,1.55
2023-03-25T14:53:30.060Z,1.45
2023-03-25T14:54:57.061Z,1.67
2023-03-25T14:56:23.417Z,1.63
2023-03-25T14:57:46.527Z,1.70
2023-03-25T14:59:17.815Z,1.40
2023-03-25T15:00:47.314Z,1.67
2023-03-25T15:02:18.093Z,1.50
2023-03-25T15:03:46.225Z,1.73
2023-03-25T15:05:20.293Z,1.75
2023-03-25T15:06:52.121Z,1.65
2023-03-25T15:08:17.962Z,1.70
2023-03-25T15:09:49.049Z,1.38
2023-03-25T15:11:17.207Z,1.90
2023-03-25T15:12:40.335Z,1.70
2023-03-25T15:14:06.995Z,1.80
2023-03-25T15:15:33.957Z,1.65
2023-03-25T15:17:05.177Z,1.65
2023-03-25T15:18:59.919Z,1.00
2023-03-25T15:20:37.538Z,1.50
2023-03-25T15:22:21.109Z,1.10
2023-03-25T15:23:46.493Z,1.00
2023-03-25T15:25:17.181Z,1.20
2023-03-25T15:26:43.375Z,1.60
2023-03-25T15:28:18.901Z,2.08
2023-03-25T15:31:38.492Z,1.33
2023-03-25T15:33:19.338Z,1.45
2023-03-25T15:35:01.051Z,1.30
2023-03-25T15:36:55.519Z,2.00
2023-03-25T15:38:40.239Z,1.80
2023-03-25T15:40:16.733Z,1.90
2023-03-25T15:42:08.408Z,2.40
2023-03-25T15:44:02.165Z,2.33
2023-03-25T15:45:34.429Z,2.60
2023-03-25T15:47:07.443Z,2.65
2023-03-25T15:48:57.121Z,2.20
2023-03-25T15:50:37.434Z,1.70
2023-03-25T15:52:19.734Z,1.75
2023-03-25T15:54:20.576Z,2.10
2023-03-25T15:55:48.170Z,2.47
2023-03-25T15:57:22.824Z,2.67
2023-03-25T15:58:55.331Z,2.80
2023-03-25T16:00:24.356Z,3.03
2023-03-25T16:01:53.128Z,2.92
2023-03-25T16:03:18.614Z,3.17
2023-03-25T16:04:44.384Z,2.92
2023-03-25T16:06:16.705Z,2.90
2023-03-25T16:07:39.094Z,2.05
2023-03-25T16:09:03.289Z,2.20
2023-03-25T16:10:32.547Z,2.15
2023-03-25T16:12:01.293Z,2.13
2023-03-25T16:13:25.235Z,1.92
2023-03-25T16:14:48.798Z,2.70
2023-03-25T16:16:12.881Z,3.15
2023-03-25T16:17:36.338Z,3.10
2023-03-25T16:18:57.568Z,2.72
2023-03-25T16:20:24.663Z,2.63
2023-03-25T16:21:50.745Z,3.50
2023-03-25T16:23:20.719Z,3.70
2023-03-25T16:24:43.429Z,3.13
2023-03-25T16:26:06.808Z,2.40
2023-03-25T16:27:32.645Z,2.47
2023-03-25T16:28:56.610Z,2.45
2023-03-25T16:30:25.201Z,2.33
2023-03-25T16:31:56.683Z,2.40
2023-03-25T16:33:23.174Z,2.20
2023-03-25T16:34:44.472Z,2.58
2023-03-25T16:36:10.663Z,2.03
2023-03-25T16:37:34.283Z,2.30
2023-03-25T16:38:56.867Z,2.15
2023-03-25T16:40:26.725Z,2.78
2023-03-25T16:41:51.349Z,2.80
2023-03-25T16:43:18.705Z,2.75
2023-03-25T16:44:42.762Z,2.53
2023-03-25T16:46:07.110Z,2.72
2023-03-25T16:47:33.517Z,2.78
2023-03-25T16:48:57.501Z,3.05
2023-03-25T16:50:21.644Z,3.35
2023-03-25T16:51:45.236Z,2.60
2023-03-25T16:53:08.083Z,3.28
2023-03-25T16:54:34.976Z,2.78
2023-03-25T16:56:03.020Z,3.30
2023-03-25T16:57:27.629Z,3.50
2023-03-25T16:58:58.219Z,4.15
2023-03-25T17:00:25.741Z,3.67
2023-03-25T17:01:54.170Z,4.38
2023-03-25T17:03:20.220Z,4.20
2023-03-25T17:04:43.546Z,4.15
2023-03-25T17:06:12.920Z,4.53
2023-03-25T17:07:35.319Z,4.75
2023-03-25T17:08:59.295Z,4.90
2023-03-25T17:10:24.534Z,5.43
2023-03-25T17:11:48.669Z,5.60
2023-03-25T17:13:12.244Z,5.45
2023-03-25T17:14:38.225Z,6.63
2023-03-25T17:16:02.421Z,7.20
2023-03-25T17:18:03.674Z,7.10
2023-03-25T17:19:28.947Z,6.57
2023-03-25T17:20:52.084Z,6.85
2023-03-25T17:22:18.117Z,5.65
2023-03-25T17:23:46.478Z,7.28
2023-03-25T17:25:26.478Z,6.45
2023-03-25T17:26:57.581Z,7.82
2023-03-25T17:28:28.948Z,10.02
2023-03-25T17:29:52.467Z,9.20
2023-03-25T17:31:29.808Z,9.50
2023-03-25T17:32:51.891Z,7.57
2023-03-25T17:34:16.053Z,7.85
2023-03-25T17:35:39.496Z,8.80
2023-03-25T17:37:04.101Z,8.43
2023-03-25T17:38:27.880Z,8.65
2023-03-25T17:39:50.363Z,8.57
2023-03-25T17:41:14.315Z,10.10
2023-03-25T17:42:38.145Z,8.80
2023-03-25T17:44:01.654Z,9.30
2023-03-25T17:45:25.984Z,9.88
2023-03-25T17:46:55.490Z,9.48
2023-03-25T17:48:18.857Z,9.45
2023-03-25T17:49:40.511Z,9.85
2023-03-25T17:51:04.366Z,8.85
2023-03-25T17:52:30.716Z,7.20
2023-03-25T17:54:04.769Z,5.43
2023-03-25T17:55:26.386Z,5.00
2023-03-25T17:56:50.492Z,5.72
2023-03-25T17:58:14.450Z,5.40
2023-03-25T17:59:37.123Z,5.40
2023-03-25T18:01:01.535Z,5.35
2023-03-25T18:02:25.616Z,6.68
2023-03-25T18:03:47.984Z,6.03
2023-03-25T18:05:12.430Z,7.68
2023-03-25T18:06:34.758Z,6.68
2023-03-25T18:07:58.728Z,8.00
2023-03-25T18:09:29.129Z,8.00
2023-03-25T18:11:01.305Z,8.43
2023-03-25T18:12:28.867Z,8.00
2023-03-25T18:13:58.633Z,7.65
2023-03-25T18:15:21.205Z,8.23
2023-03-25T18:16:46.537Z,8.82
2023-03-25T18:18:21.192Z,8.27
2023-03-25T18:19:42.880Z,8.40
2023-03-25T18:21:05.657Z,8.10
2023-03-25T18:22:27.660Z,8.55
2023-03-25T18:23:53.699Z,9.10
2023-03-25T18:25:16.491Z,9.07
2023-03-25T18:26:38.829Z,9.02
2023-03-25T18:28:01.625Z,8.70
2023-03-25T18:29:26.490Z,8.82
2023-03-25T18:30:52.689Z,9.90
2023-03-25T18:32:15.570Z,9.98
2023-03-25T18:33:39.842Z,11.70
2023-03-25T18:35:02.209Z,12.65
2023-03-25T18:36:24.744Z,15.38
2023-03-25T18:37:49.230Z,14.07
2023-03-25T18:39:18.040Z,14.15
2023-03-25T18:41:05.325Z,11.77
2023-03-25T18:42:27.813Z,8.77
2023-03-25T18:43:49.951Z,8.88
2023-03-25T18:45:15.207Z,8.07
2023-03-25T18:46:37.992Z,7.45
2023-03-25T18:48:02.976Z,7.53
2023-03-25T18:49:39.039Z,6.97
2023-03-25T18:51:01.973Z,6.40
2023-03-25T18:52:24.628Z,6.85
2023-03-25T18:53:48.987Z,6.50
2023-03-25T18:55:13.516Z,7.03
2023-03-25T18:56:37.800Z,6.93
2023-03-25T18:58:00.680Z,6.13
2023-03-25T18:59:24.072Z,6.45
2023-03-25T19:00:48.509Z,6.85
2023-03-25T19:02:13.781Z,5.50
2023-03-25T19:03:39.682Z,5.50
2023-03-25T19:05:02.587Z,4.72
2023-03-25T19:06:24.677Z,5.35
2023-03-25T19:07:47.278Z,5.03
2023-03-25T19:09:15.453Z,4.28
2023-03-25T19:10:38.735Z,4.93
2023-03-25T19:12:11.596Z,5.07
2023-03-25T19:13:33.995Z,4.90
2023-03-25T19:15:03.282Z,3.92
2023-03-25T19:17:01.199Z,4.07
2023-03-25T19:18:43.132Z,3.35
2023-03-25T19:20:25.258Z,3.90
2023-03-25T19:23:13.660Z,3.08
2023-03-25T19:24:36.183Z,2.63
2023-03-25T19:26:01.207Z,3.30
2023-03-25T19:27:23.838Z,2.92
2023-03-25T19:28:46.537Z,2.88
2023-03-25T19:30:11.090Z,2.45
2023-03-25T19:31:33.689Z,2.40
2023-03-25T19:32:59.004Z,2.60
2023-03-25T19:34:22.660Z,2.45
2023-03-25T19:35:54.560Z,2.90
2023-03-25T19:37:16.961Z,2.78
2023-03-25T19:38:39.621Z,2.67
2023-03-25T19:40:01.221Z,2.30
2023-03-25T19:41:23.757Z,3.08
2023-03-25T19:42:45.901Z,3.03
2023-03-25T19:44:07.970Z,2.97
2023-03-25T19:45:32.560Z,2.80
2023-03-25T19:46:55.459Z,2.70
2023-03-25T19:48:27.198Z,3.20
2023-03-25T19:49:49.654Z,2.88
2023-03-25T19:51:14.025Z,2.58
2023-03-25T19:52:36.650Z,2.30
2023-03-25T19:54:01.826Z,2.30
2023-03-25T19:55:24.002Z,2.75
2023-03-25T19:56:46.685Z,2.35
2023-03-25T19:58:09.019Z,3.90